sensor_id;sensor_type;location;lat;lon;timestamp;P1;durP1;ratioP1;P2;durP2;ratioP2
16450;SDS011;12243;42.708;23.310;2022-11-02T00:00:46;39.33;;;23.37;;
16450;SDS011;12243;42.708;23.310;2022-11-02T00:03:13;39.17;;;23.63;;
16450;SDS011;12243;42.708;23.310;2022-11-02T00:05:40;30.40;;;17.23;;
16450;SDS011;12243;42.708;23.310;2022-11-02T00:08:07;26.57;;;16.17;;
16450;SDS011;12243;42.708;23.310;2022-11-02T00:10:34;30.20;;;17.33;;
16450;SDS011;12243;42.708;23.310;2022-11-02T00:13:01;28.77;;;17.67;;
16450;SDS011;12243;42.708;23.310;2022-11-02T00:15:30;40.77;;;19.33;;
16450;SDS011;12243;42.708;23.310;2022-11-02T00:18:00;29.87;;;18.83;;
16450;SDS011;12243;42.708;23.310;2022-11-02T00:20:30;37.10;;;19.70;;
16450;SDS011;12243;42.708;23.310;2022-11-02T00:22:57;32.17;;;17.70;;
16450;SDS011;12243;42.708;23.310;2022-11-02T00:25:27;25.73;;;16.50;;
16450;SDS011;12243;42.708;23.310;2022-11-02T00:27:55;27.77;;;14.47;;
16450;SDS011;12243;42.708;23.310;2022-11-02T00:30:22;28.03;;;15.77;;
16450;SDS011;12243;42.708;23.310;2022-11-02T00:32:51;34.50;;;16.37;;
16450;SDS011;12243;42.708;23.310;2022-11-02T00:35:18;29.30;;;16.73;;
16450;SDS011;12243;42.708;23.310;2022-11-02T00:37:45;24.77;;;16.57;;
16450;SDS011;12243;42.708;23.310;2022-11-02T00:40:12;28.97;;;16.57;;
16450;SDS011;12243;42.708;23.310;2022-11-02T00:42:39;29.67;;;16.50;;
16450;SDS011;12243;42.708;23.310;2022-11-02T00:45:07;29.17;;;16.60;;
16450;SDS011;12243;42.708;23.310;2022-11-02T00:47:35;31.73;;;17.20;;
16450;SDS011;12243;42.708;23.310;2022-11-02T00:50:04;26.73;;;16.40;;
16450;SDS011;12243;42.708;23.310;2022-11-02T00:52:37;32.60;;;16.40;;
16450;SDS011;12243;42.708;23.310;2022-11-02T00:55:04;23.47;;;16.90;;
16450;SDS011;12243;42.708;23.310;2022-11-02T00:57:33;28.13;;;16.70;;
16450;SDS011;12243;42.708;23.310;2022-11-02T01:00:00;28.00;;;16.73;;
16450;SDS011;12243;42.708;23.310;2022-11-02T01:02:27;24.53;;;14.67;;
16450;SDS011;12243;42.708;23.310;2022-11-02T01:04:54;28.17;;;14.13;;
16450;SDS011;12243;42.708;23.310;2022-11-02T01:07:22;22.00;;;12.67;;
16450;SDS011;12243;42.708;23.310;2022-11-02T01:09:49;25.37;;;12.83;;
16450;SDS011;12243;42.708;23.310;2022-11-02T01:12:17;19.63;;;12.17;;
16450;SDS011;12243;42.708;23.310;2022-11-02T01:14:44;20.07;;;11.67;;
16450;SDS011;12243;42.708;23.310;2022-11-02T01:17:13;20.37;;;11.70;;
16450;SDS011;12243;42.708;23.310;2022-11-02T01:19:40;21.83;;;13.43;;
16450;SDS011;12243;42.708;23.310;2022-11-02T01:22:07;31.00;;;13.43;;
16450;SDS011;12243;42.708;23.310;2022-11-02T01:24:35;25.07;;;12.93;;
16450;SDS011;12243;42.708;23.310;2022-11-02T01:27:02;24.97;;;13.33;;
16450;SDS011;12243;42.708;23.310;2022-11-02T01:29:29;29.07;;;13.63;;
16450;SDS011;12243;42.708;23.310;2022-11-02T01:31:57;30.17;;;13.93;;
16450;SDS011;12243;42.708;23.310;2022-11-02T01:34:24;34.27;;;16.57;;
16450;SDS011;12243;42.708;23.310;2022-11-02T01:36:51;55.30;;;20.83;;
16450;SDS011;12243;42.708;23.310;2022-11-02T01:39:18;50.80;;;21.57;;
16450;SDS011;12243;42.708;23.310;2022-11-02T01:41:49;60.40;;;22.50;;
16450;SDS011;12243;42.708;23.310;2022-11-02T01:44:26;48.00;;;21.07;;
16450;SDS011;12243;42.708;23.310;2022-11-02T01:46:56;63.03;;;24.50;;
16450;SDS011;12243;42.708;23.310;2022-11-02T01:49:27;48.63;;;22.40;;
16450;SDS011;12243;42.708;23.310;2022-11-02T01:51:56;53.57;;;23.27;;
16450;SDS011;12243;42.708;23.310;2022-11-02T01:54:28;56.23;;;25.07;;
16450;SDS011;12243;42.708;23.310;2022-11-02T01:56:59;58.57;;;27.43;;
16450;SDS011;12243;42.708;23.310;2022-11-02T01:59:31;59.83;;;27.47;;
16450;SDS011;12243;42.708;23.310;2022-11-02T02:02:01;60.37;;;27.30;;
16450;SDS011;12243;42.708;23.310;2022-11-02T02:04:31;57.73;;;27.57;;
16450;SDS011;12243;42.708;23.310;2022-11-02T02:06:58;55.70;;;26.30;;
16450;SDS011;12243;42.708;23.310;2022-11-02T02:09:25;50.40;;;24.43;;
16450;SDS011;12243;42.708;23.310;2022-11-02T02:11:54;49.33;;;24.20;;
16450;SDS011;12243;42.708;23.310;2022-11-02T02:14:23;54.93;;;25.83;;
16450;SDS011;12243;42.708;23.310;2022-11-02T02:16:56;56.97;;;25.37;;
16450;SDS011;12243;42.708;23.310;2022-11-02T02:19:38;53.20;;;23.30;;
16450;SDS011;12243;42.708;23.310;2022-11-02T02:22:21;52.00;;;22.03;;
16450;SDS011;12243;42.708;23.310;2022-11-02T02:25:06;52.03;;;22.00;;
16450;SDS011;12243;42.708;23.310;2022-11-02T02:27:55;54.10;;;22.57;;
16450;SDS011;12243;42.708;23.310;2022-11-02T02:30:33;42.60;;;20.77;;
16450;SDS011;12243;42.708;23.310;2022-11-02T02:33:07;42.03;;;19.13;;
16450;SDS011;12243;42.708;23.310;2022-11-02T02:35:38;44.20;;;21.40;;
16450;SDS011;12243;42.708;23.310;2022-11-02T02:38:10;41.80;;;21.00;;
16450;SDS011;12243;42.708;23.310;2022-11-02T02:40:41;45.30;;;23.63;;
16450;SDS011;12243;42.708;23.310;2022-11-02T02:43:17;64.33;;;31.13;;
16450;SDS011;12243;42.708;23.310;2022-11-02T02:45:49;72.77;;;31.43;;
16450;SDS011;12243;42.708;23.310;2022-11-02T02:48:20;59.30;;;28.87;;
16450;SDS011;12243;42.708;23.310;2022-11-02T02:50:49;64.00;;;31.30;;
16450;SDS011;12243;42.708;23.310;2022-11-02T02:53:21;63.73;;;30.93;;
16450;SDS011;12243;42.708;23.310;2022-11-02T02:55:53;64.10;;;35.37;;
16450;SDS011;12243;42.708;23.310;2022-11-02T02:58:25;78.80;;;44.37;;
16450;SDS011;12243;42.708;23.310;2022-11-02T03:00:57;84.73;;;45.03;;
16450;SDS011;12243;42.708;23.310;2022-11-02T03:03:27;79.43;;;42.67;;
16450;SDS011;12243;42.708;23.310;2022-11-02T03:06:02;49.37;;;28.27;;
16450;SDS011;12243;42.708;23.310;2022-11-02T03:08:35;45.30;;;22.90;;
16450;SDS011;12243;42.708;23.310;2022-11-02T03:11:09;42.23;;;22.73;;
16450;SDS011;12243;42.708;23.310;2022-11-02T03:13:42;35.07;;;21.37;;
16450;SDS011;12243;42.708;23.310;2022-11-02T03:16:26;40.20;;;20.20;;
16450;SDS011;12243;42.708;23.310;2022-11-02T03:19:05;38.20;;;18.63;;
16450;SDS011;12243;42.708;23.310;2022-11-02T03:21:42;38.53;;;19.40;;
16450;SDS011;12243;42.708;23.310;2022-11-02T03:24:12;33.47;;;19.53;;
16450;SDS011;12243;42.708;23.310;2022-11-02T03:26:45;41.73;;;21.50;;
16450;SDS011;12243;42.708;23.310;2022-11-02T03:29:20;39.33;;;19.40;;
16450;SDS011;12243;42.708;23.310;2022-11-02T03:31:54;35.27;;;18.87;;
16450;SDS011;12243;42.708;23.310;2022-11-02T03:34:25;41.20;;;18.03;;
16450;SDS011;12243;42.708;23.310;2022-11-02T03:36:59;29.77;;;16.80;;
16450;SDS011;12243;42.708;23.310;2022-11-02T03:39:34;31.53;;;18.43;;
16450;SDS011;12243;42.708;23.310;2022-11-02T03:42:04;32.27;;;15.93;;
16450;SDS011;12243;42.708;23.310;2022-11-02T03:44:37;33.00;;;16.30;;
16450;SDS011;12243;42.708;23.310;2022-11-02T03:47:07;30.13;;;16.03;;
16450;SDS011;12243;42.708;23.310;2022-11-02T03:49:39;32.80;;;17.00;;
16450;SDS011;12243;42.708;23.310;2022-11-02T03:52:10;33.73;;;17.57;;
16450;SDS011;12243;42.708;23.310;2022-11-02T03:54:47;39.07;;;20.97;;
16450;SDS011;12243;42.708;23.310;2022-11-02T03:57:20;48.87;;;25.20;;
16450;SDS011;12243;42.708;23.310;2022-11-02T03:59:54;64.63;;;35.43;;
16450;SDS011;12243;42.708;23.310;2022-11-02T04:02:40;55.53;;;32.97;;
16450;SDS011;12243;42.708;23.310;2022-11-02T04:05:11;45.17;;;26.23;;
16450;SDS011;12243;42.708;23.310;2022-11-02T04:07:40;34.37;;;18.33;;
16450;SDS011;12243;42.708;23.310;2022-11-02T04:10:28;37.13;;;18.53;;
16450;SDS011;12243;42.708;23.310;2022-11-02T04:12:55;29.43;;;17.37;;
16450;SDS011;12243;42.708;23.310;2022-11-02T04:15:40;26.53;;;16.50;;
16450;SDS011;12243;42.708;23.310;2022-11-02T04:18:08;29.47;;;16.33;;
16450;SDS011;12243;42.708;23.310;2022-11-02T04:20:52;33.63;;;17.37;;
16450;SDS011;12243;42.708;23.310;2022-11-02T04:23:19;30.07;;;16.70;;
16450;SDS011;12243;42.708;23.310;2022-11-02T04:26:04;35.57;;;17.63;;
16450;SDS011;12243;42.708;23.310;2022-11-02T04:28:41;32.23;;;16.00;;
16450;SDS011;12243;42.708;23.310;2022-11-02T04:31:10;29.77;;;15.77;;
16450;SDS011;12243;42.708;23.310;2022-11-02T04:33:38;34.07;;;16.13;;
16450;SDS011;12243;42.708;23.310;2022-11-02T04:36:09;35.80;;;16.53;;
16450;SDS011;12243;42.708;23.310;2022-11-02T04:38:37;33.60;;;15.67;;
16450;SDS011;12243;42.708;23.310;2022-11-02T04:41:17;27.13;;;15.63;;
16450;SDS011;12243;42.708;23.310;2022-11-02T04:44:07;32.43;;;16.03;;
16450;SDS011;12243;42.708;23.310;2022-11-02T04:46:37;31.23;;;16.30;;
16450;SDS011;12243;42.708;23.310;2022-11-02T04:49:07;27.83;;;16.10;;
16450;SDS011;12243;42.708;23.310;2022-11-02T04:51:36;28.00;;;16.00;;
16450;SDS011;12243;42.708;23.310;2022-11-02T04:54:04;29.40;;;15.27;;
16450;SDS011;12243;42.708;23.310;2022-11-02T04:56:32;32.33;;;15.07;;
16450;SDS011;12243;42.708;23.310;2022-11-02T04:58:59;35.80;;;16.03;;
16450;SDS011;12243;42.708;23.310;2022-11-02T05:01:29;29.53;;;16.33;;
16450;SDS011;12243;42.708;23.310;2022-11-02T05:03:59;30.00;;;15.83;;
16450;SDS011;12243;42.708;23.310;2022-11-02T05:06:29;38.17;;;16.40;;
16450;SDS011;12243;42.708;23.310;2022-11-02T05:08:56;26.97;;;16.03;;
16450;SDS011;12243;42.708;23.310;2022-11-02T05:11:24;31.57;;;17.57;;
16450;SDS011;12243;42.708;23.310;2022-11-02T05:13:51;27.13;;;16.70;;
16450;SDS011;12243;42.708;23.310;2022-11-02T05:16:18;33.37;;;17.07;;
16450;SDS011;12243;42.708;23.310;2022-11-02T05:18:48;29.57;;;17.60;;
16450;SDS011;12243;42.708;23.310;2022-11-02T05:21:18;35.83;;;17.37;;
16450;SDS011;12243;42.708;23.310;2022-11-02T05:23:46;35.80;;;17.07;;
16450;SDS011;12243;42.708;23.310;2022-11-02T05:26:13;37.03;;;22.27;;
16450;SDS011;12243;42.708;23.310;2022-11-02T05:28:45;36.07;;;18.97;;
16450;SDS011;12243;42.708;23.310;2022-11-02T05:31:12;30.43;;;17.03;;
16450;SDS011;12243;42.708;23.310;2022-11-02T05:33:39;27.10;;;16.43;;
16450;SDS011;12243;42.708;23.310;2022-11-02T05:36:11;33.03;;;17.20;;
16450;SDS011;12243;42.708;23.310;2022-11-02T05:38:43;41.83;;;18.60;;
16450;SDS011;12243;42.708;23.310;2022-11-02T05:41:10;33.70;;;17.03;;
16450;SDS011;12243;42.708;23.310;2022-11-02T05:43:39;34.97;;;18.20;;
16450;SDS011;12243;42.708;23.310;2022-11-02T05:46:08;26.80;;;15.40;;
16450;SDS011;12243;42.708;23.310;2022-11-02T05:48:35;36.60;;;16.83;;
16450;SDS011;12243;42.708;23.310;2022-11-02T05:51:02;31.00;;;16.33;;
16450;SDS011;12243;42.708;23.310;2022-11-02T05:53:30;38.00;;;17.30;;
16450;SDS011;12243;42.708;23.310;2022-11-02T05:56:00;33.47;;;18.20;;
16450;SDS011;12243;42.708;23.310;2022-11-02T05:58:27;35.47;;;18.50;;
16450;SDS011;12243;42.708;23.310;2022-11-02T06:00:57;38.30;;;17.23;;
16450;SDS011;12243;42.708;23.310;2022-11-02T06:03:24;34.27;;;18.60;;
16450;SDS011;12243;42.708;23.310;2022-11-02T06:05:54;32.87;;;18.03;;
16450;SDS011;12243;42.708;23.310;2022-11-02T06:08:22;33.50;;;15.23;;
16450;SDS011;12243;42.708;23.310;2022-11-02T06:10:49;34.63;;;15.80;;
16450;SDS011;12243;42.708;23.310;2022-11-02T06:13:17;25.80;;;15.03;;
16450;SDS011;12243;42.708;23.310;2022-11-02T06:15:44;26.50;;;14.50;;
16450;SDS011;12243;42.708;23.310;2022-11-02T06:18:11;23.37;;;14.40;;
16450;SDS011;12243;42.708;23.310;2022-11-02T06:20:38;31.17;;;15.20;;
16450;SDS011;12243;42.708;23.310;2022-11-02T06:23:05;33.83;;;15.40;;
16450;SDS011;12243;42.708;23.310;2022-11-02T06:25:32;32.17;;;15.43;;
16450;SDS011;12243;42.708;23.310;2022-11-02T06:27:59;35.17;;;16.23;;
16450;SDS011;12243;42.708;23.310;2022-11-02T06:30:30;27.83;;;15.40;;
16450;SDS011;12243;42.708;23.310;2022-11-02T06:32:57;36.13;;;17.30;;
16450;SDS011;12243;42.708;23.310;2022-11-02T06:35:23;32.70;;;15.73;;
16450;SDS011;12243;42.708;23.310;2022-11-02T06:37:50;33.33;;;16.30;;
16450;SDS011;12243;42.708;23.310;2022-11-02T06:40:17;34.17;;;16.07;;
16450;SDS011;12243;42.708;23.310;2022-11-02T06:42:44;34.07;;;17.17;;
16450;SDS011;12243;42.708;23.310;2022-11-02T06:45:11;34.40;;;17.47;;
16450;SDS011;12243;42.708;23.310;2022-11-02T06:47:39;32.37;;;16.67;;
16450;SDS011;12243;42.708;23.310;2022-11-02T06:50:06;45.40;;;17.13;;
16450;SDS011;12243;42.708;23.310;2022-11-02T06:52:33;33.67;;;17.27;;
16450;SDS011;12243;42.708;23.310;2022-11-02T06:55:00;37.97;;;16.33;;
16450;SDS011;12243;42.708;23.310;2022-11-02T06:57:27;31.80;;;15.93;;
16450;SDS011;12243;42.708;23.310;2022-11-02T06:59:54;35.20;;;17.30;;
16450;SDS011;12243;42.708;23.310;2022-11-02T07:02:27;32.03;;;18.27;;
16450;SDS011;12243;42.708;23.310;2022-11-02T07:04:56;30.60;;;17.33;;
16450;SDS011;12243;42.708;23.310;2022-11-02T07:07:23;37.07;;;17.83;;
16450;SDS011;12243;42.708;23.310;2022-11-02T07:09:50;34.83;;;17.30;;
16450;SDS011;12243;42.708;23.310;2022-11-02T07:12:17;36.63;;;17.83;;
16450;SDS011;12243;42.708;23.310;2022-11-02T07:14:44;36.00;;;17.63;;
16450;SDS011;12243;42.708;23.310;2022-11-02T07:17:11;38.40;;;18.37;;
16450;SDS011;12243;42.708;23.310;2022-11-02T07:19:37;28.00;;;16.00;;
16450;SDS011;12243;42.708;23.310;2022-11-02T07:22:06;43.77;;;18.47;;
16450;SDS011;12243;42.708;23.310;2022-11-02T07:24:33;38.47;;;18.73;;
16450;SDS011;12243;42.708;23.310;2022-11-02T07:27:00;37.37;;;18.17;;
16450;SDS011;12243;42.708;23.310;2022-11-02T07:29:26;41.90;;;19.43;;
16450;SDS011;12243;42.708;23.310;2022-11-02T07:31:53;37.13;;;19.33;;
16450;SDS011;12243;42.708;23.310;2022-11-02T07:34:20;35.00;;;18.43;;
16450;SDS011;12243;42.708;23.310;2022-11-02T07:36:48;38.63;;;18.73;;
16450;SDS011;12243;42.708;23.310;2022-11-02T07:39:16;35.47;;;19.53;;
16450;SDS011;12243;42.708;23.310;2022-11-02T07:41:44;45.03;;;23.13;;
16450;SDS011;12243;42.708;23.310;2022-11-02T07:44:10;51.30;;;22.17;;
16450;SDS011;12243;42.708;23.310;2022-11-02T07:46:52;33.93;;;18.60;;
16450;SDS011;12243;42.708;23.310;2022-11-02T07:49:19;37.50;;;19.80;;
16450;SDS011;12243;42.708;23.310;2022-11-02T07:51:46;43.67;;;19.63;;
16450;SDS011;12243;42.708;23.310;2022-11-02T07:54:13;34.83;;;18.00;;
16450;SDS011;12243;42.708;23.310;2022-11-02T07:56:41;40.33;;;20.43;;
16450;SDS011;12243;42.708;23.310;2022-11-02T07:59:09;42.70;;;21.10;;
16450;SDS011;12243;42.708;23.310;2022-11-02T08:01:37;37.27;;;19.03;;
16450;SDS011;12243;42.708;23.310;2022-11-02T08:04:03;39.67;;;18.97;;
16450;SDS011;12243;42.708;23.310;2022-11-02T08:06:30;43.63;;;20.27;;
16450;SDS011;12243;42.708;23.310;2022-11-02T08:08:59;37.93;;;20.07;;
16450;SDS011;12243;42.708;23.310;2022-11-02T08:11:27;40.03;;;21.07;;
16450;SDS011;12243;42.708;23.310;2022-11-02T08:13:55;36.00;;;19.43;;
16450;SDS011;12243;42.708;23.310;2022-11-02T08:16:23;42.33;;;19.80;;
16450;SDS011;12243;42.708;23.310;2022-11-02T08:18:49;39.03;;;18.27;;
16450;SDS011;12243;42.708;23.310;2022-11-02T08:21:16;41.43;;;20.67;;
16450;SDS011;12243;42.708;23.310;2022-11-02T08:23:43;35.40;;;19.33;;
16450;SDS011;12243;42.708;23.310;2022-11-02T08:26:10;37.40;;;17.80;;
16450;SDS011;12243;42.708;23.310;2022-11-02T08:28:37;32.00;;;17.17;;
16450;SDS011;12243;42.708;23.310;2022-11-02T08:31:08;28.93;;;17.77;;
16450;SDS011;12243;42.708;23.310;2022-11-02T08:33:40;37.57;;;18.83;;
16450;SDS011;12243;42.708;23.310;2022-11-02T08:36:07;36.10;;;17.42;;
16450;SDS011;12243;42.708;23.310;2022-11-02T08:38:34;35.47;;;18.52;;
16450;SDS011;12243;42.708;23.310;2022-11-02T08:41:02;30.40;;;17.57;;
16450;SDS011;12243;42.708;23.310;2022-11-02T08:43:29;45.25;;;19.70;;
16450;SDS011;12243;42.708;23.310;2022-11-02T08:45:56;36.42;;;17.85;;
16450;SDS011;12243;42.708;23.310;2022-11-02T08:48:25;34.70;;;17.48;;
16450;SDS011;12243;42.708;23.310;2022-11-02T08:50:53;36.55;;;17.15;;
16450;SDS011;12243;42.708;23.310;2022-11-02T08:53:20;38.65;;;17.33;;
16450;SDS011;12243;42.708;23.310;2022-11-02T08:55:47;31.85;;;17.38;;
16450;SDS011;12243;42.708;23.310;2022-11-02T08:58:14;35.92;;;16.33;;
16450;SDS011;12243;42.708;23.310;2022-11-02T09:00:42;33.22;;;16.55;;
16450;SDS011;12243;42.708;23.310;2022-11-02T09:03:10;35.28;;;17.17;;
16450;SDS011;12243;42.708;23.310;2022-11-02T09:05:40;26.75;;;16.63;;
16450;SDS011;12243;42.708;23.310;2022-11-02T09:08:08;30.20;;;16.42;;
16450;SDS011;12243;42.708;23.310;2022-11-02T09:10:38;37.92;;;14.88;;
16450;SDS011;12243;42.708;23.310;2022-11-02T09:13:06;34.10;;;15.68;;
16450;SDS011;12243;42.708;23.310;2022-11-02T09:15:36;29.25;;;15.00;;
16450;SDS011;12243;42.708;23.310;2022-11-02T09:18:03;28.50;;;15.40;;
16450;SDS011;12243;42.708;23.310;2022-11-02T09:20:31;34.25;;;14.25;;
16450;SDS011;12243;42.708;23.310;2022-11-02T09:23:00;31.92;;;14.68;;
16450;SDS011;12243;42.708;23.310;2022-11-02T09:25:27;30.10;;;14.32;;
16450;SDS011;12243;42.708;23.310;2022-11-02T09:27:54;27.27;;;14.07;;
16450;SDS011;12243;42.708;23.310;2022-11-02T09:30:22;35.30;;;15.20;;
16450;SDS011;12243;42.708;23.310;2022-11-02T09:32:53;29.05;;;13.73;;
16450;SDS011;12243;42.708;23.310;2022-11-02T09:35:20;29.48;;;14.25;;
16450;SDS011;12243;42.708;23.310;2022-11-02T09:37:48;29.58;;;13.65;;
16450;SDS011;12243;42.708;23.310;2022-11-02T09:40:17;39.25;;;14.38;;
16450;SDS011;12243;42.708;23.310;2022-11-02T09:42:49;31.42;;;15.10;;
16450;SDS011;12243;42.708;23.310;2022-11-02T09:45:24;34.25;;;14.32;;
16450;SDS011;12243;42.708;23.310;2022-11-02T09:47:52;26.88;;;14.35;;
16450;SDS011;12243;42.708;23.310;2022-11-02T09:50:23;29.17;;;14.80;;
16450;SDS011;12243;42.708;23.310;2022-11-02T09:52:54;29.05;;;14.70;;
16450;SDS011;12243;42.708;23.310;2022-11-02T09:55:28;26.60;;;14.60;;
16450;SDS011;12243;42.708;23.310;2022-11-02T09:58:02;36.85;;;17.05;;
16450;SDS011;12243;42.708;23.310;2022-11-02T10:00:39;33.65;;;15.73;;
16450;SDS011;12243;42.708;23.310;2022-11-02T10:03:08;27.88;;;14.95;;
16450;SDS011;12243;42.708;23.310;2022-11-02T10:05:46;31.40;;;14.02;;
16450;SDS011;12243;42.708;23.310;2022-11-02T10:08:22;28.65;;;14.18;;
16450;SDS011;12243;42.708;23.310;2022-11-02T10:10:59;27.67;;;14.63;;
16450;SDS011;12243;42.708;23.310;2022-11-02T10:13:33;29.67;;;14.35;;
16450;SDS011;12243;42.708;23.310;2022-11-02T10:16:07;31.35;;;15.73;;
16450;SDS011;12243;42.708;23.310;2022-11-02T10:18:39;35.55;;;14.15;;
16450;SDS011;12243;42.708;23.310;2022-11-02T10:21:07;28.95;;;13.90;;
16450;SDS011;12243;42.708;23.310;2022-11-02T10:23:38;37.92;;;15.30;;
16450;SDS011;12243;42.708;23.310;2022-11-02T10:26:10;30.92;;;13.55;;
16450;SDS011;12243;42.708;23.310;2022-11-02T10:28:45;38.35;;;15.55;;
16450;SDS011;12243;42.708;23.310;2022-11-02T10:31:17;26.40;;;14.10;;
16450;SDS011;12243;42.708;23.310;2022-11-02T10:33:49;23.70;;;13.60;;
16450;SDS011;12243;42.708;23.310;2022-11-02T10:36:23;28.38;;;14.20;;
16450;SDS011;12243;42.708;23.310;2022-11-02T10:39:02;31.08;;;14.73;;
16450;SDS011;12243;42.708;23.310;2022-11-02T10:41:40;39.90;;;14.80;;
16450;SDS011;12243;42.708;23.310;2022-11-02T10:44:19;37.83;;;13.95;;
16450;SDS011;12243;42.708;23.310;2022-11-02T10:47:00;35.75;;;13.27;;
16450;SDS011;12243;42.708;23.310;2022-11-02T10:49:39;28.33;;;12.95;;
16450;SDS011;12243;42.708;23.310;2022-11-02T10:52:15;30.23;;;12.40;;
16450;SDS011;12243;42.708;23.310;2022-11-02T10:54:43;27.95;;;11.80;;
16450;SDS011;12243;42.708;23.310;2022-11-02T10:57:12;29.30;;;11.73;;
16450;SDS011;12243;42.708;23.310;2022-11-02T10:59:40;37.45;;;9.98;;
16450;SDS011;12243;42.708;23.310;2022-11-02T11:02:09;27.35;;;10.68;;
16450;SDS011;12243;42.708;23.310;2022-11-02T11:04:39;29.67;;;9.55;;
16450;SDS011;12243;42.708;23.310;2022-11-02T11:07:11;25.88;;;9.73;;
16450;SDS011;12243;42.708;23.310;2022-11-02T11:09:45;16.77;;;7.30;;
16450;SDS011;12243;42.708;23.310;2022-11-02T11:12:16;19.25;;;7.38;;
16450;SDS011;12243;42.708;23.310;2022-11-02T11:14:47;19.00;;;6.25;;
16450;SDS011;12243;42.708;23.310;2022-11-02T11:17:19;17.45;;;6.82;;
16450;SDS011;12243;42.708;23.310;2022-11-02T11:19:49;12.45;;;6.13;;
16450;SDS011;12243;42.708;23.310;2022-11-02T11:22:25;17.15;;;5.78;;
16450;SDS011;12243;42.708;23.310;2022-11-02T11:24:55;17.00;;;6.53;;
16450;SDS011;12243;42.708;23.310;2022-11-02T11:27:48;13.70;;;5.13;;
16450;SDS011;12243;42.708;23.310;2022-11-02T11:30:22;10.38;;;5.97;;
16450;SDS011;12243;42.708;23.310;2022-11-02T11:32:52;13.85;;;4.72;;
16450;SDS011;12243;42.708;23.310;2022-11-02T11:35:19;11.90;;;5.57;;
16450;SDS011;12243;42.708;23.310;2022-11-02T11:37:48;12.85;;;5.03;;
16450;SDS011;12243;42.708;23.310;2022-11-02T11:40:18;8.20;;;4.05;;
16450;SDS011;12243;42.708;23.310;2022-11-02T11:42:49;15.05;;;4.88;;
16450;SDS011;12243;42.708;23.310;2022-11-02T11:45:19;11.23;;;4.40;;
16450;SDS011;12243;42.708;23.310;2022-11-02T11:47:50;11.95;;;3.83;;
16450;SDS011;12243;42.708;23.310;2022-11-02T11:50:19;17.50;;;5.05;;
16450;SDS011;12243;42.708;23.310;2022-11-02T11:52:47;14.88;;;4.25;;
16450;SDS011;12243;42.708;23.310;2022-11-02T11:55:32;13.88;;;4.00;;
16450;SDS011;12243;42.708;23.310;2022-11-02T11:58:04;12.40;;;4.60;;
16450;SDS011;12243;42.708;23.310;2022-11-02T12:00:32;10.48;;;4.00;;
16450;SDS011;12243;42.708;23.310;2022-11-02T12:03:03;17.23;;;4.20;;
16450;SDS011;12243;42.708;23.310;2022-11-02T12:05:31;13.88;;;4.50;;
16450;SDS011;12243;42.708;23.310;2022-11-02T12:08:14;12.68;;;3.95;;
16450;SDS011;12243;42.708;23.310;2022-11-02T12:10:56;7.45;;;3.15;;
16450;SDS011;12243;42.708;23.310;2022-11-02T12:13:42;10.45;;;4.25;;
16450;SDS011;12243;42.708;23.310;2022-11-02T12:16:21;14.50;;;3.80;;
16450;SDS011;12243;42.708;23.310;2022-11-02T12:19:02;13.43;;;3.88;;
16450;SDS011;12243;42.708;23.310;2022-11-02T12:21:42;10.88;;;3.95;;
16450;SDS011;12243;42.708;23.310;2022-11-02T12:27:23;14.18;;;3.90;;
16450;SDS011;12243;42.708;23.310;2022-11-02T12:30:02;11.00;;;4.10;;
16450;SDS011;12243;42.708;23.310;2022-11-02T12:35:34;9.90;;;4.30;;
16450;SDS011;12243;42.708;23.310;2022-11-02T12:38:17;12.45;;;4.53;;
16450;SDS011;12243;42.708;23.310;2022-11-02T12:40:54;12.02;;;4.03;;
16450;SDS011;12243;42.708;23.310;2022-11-02T12:43:30;8.40;;;4.05;;
16450;SDS011;12243;42.708;23.310;2022-11-02T12:46:12;12.07;;;4.18;;
16450;SDS011;12243;42.708;23.310;2022-11-02T12:48:48;16.73;;;4.85;;
16450;SDS011;12243;42.708;23.310;2022-11-02T12:51:23;11.77;;;4.20;;
16450;SDS011;12243;42.708;23.310;2022-11-02T12:53:54;12.65;;;4.05;;
16450;SDS011;12243;42.708;23.310;2022-11-02T12:56:25;15.65;;;3.80;;
16450;SDS011;12243;42.708;23.310;2022-11-02T12:58:57;10.65;;;3.75;;
16450;SDS011;12243;42.708;23.310;2022-11-02T13:01:28;12.82;;;4.93;;
16450;SDS011;12243;42.708;23.310;2022-11-02T13:04:02;12.85;;;3.78;;
16450;SDS011;12243;42.708;23.310;2022-11-02T13:06:38;15.65;;;4.50;;
16450;SDS011;12243;42.708;23.310;2022-11-02T13:09:09;12.85;;;4.57;;
16450;SDS011;12243;42.708;23.310;2022-11-02T13:11:42;11.02;;;3.83;;
16450;SDS011;12243;42.708;23.310;2022-11-02T13:14:14;8.23;;;4.25;;
16450;SDS011;12243;42.708;23.310;2022-11-02T13:16:47;18.15;;;4.93;;
16450;SDS011;12243;42.708;23.310;2022-11-02T13:19:19;10.50;;;4.60;;
16450;SDS011;12243;42.708;23.310;2022-11-02T13:21:49;15.75;;;4.07;;
16450;SDS011;12243;42.708;23.310;2022-11-02T13:24:21;10.50;;;4.38;;
16450;SDS011;12243;42.708;23.310;2022-11-02T13:26:49;13.75;;;4.28;;
16450;SDS011;12243;42.708;23.310;2022-11-02T13:29:19;12.82;;;4.30;;
16450;SDS011;12243;42.708;23.310;2022-11-02T13:31:54;9.82;;;4.55;;
16450;SDS011;12243;42.708;23.310;2022-11-02T13:34:28;11.82;;;4.30;;
16450;SDS011;12243;42.708;23.310;2022-11-02T13:37:02;14.18;;;4.72;;
16450;SDS011;12243;42.708;23.310;2022-11-02T13:39:33;8.93;;;4.45;;
16450;SDS011;12243;42.708;23.310;2022-11-02T13:42:11;12.95;;;5.15;;
16450;SDS011;12243;42.708;23.310;2022-11-02T13:45:07;14.77;;;5.00;;
16450;SDS011;12243;42.708;23.310;2022-11-02T13:47:56;16.92;;;5.93;;
16450;SDS011;12243;42.708;23.310;2022-11-02T13:50:45;12.45;;;5.13;;
16450;SDS011;12243;42.708;23.310;2022-11-02T13:53:16;13.77;;;5.70;;
16450;SDS011;12243;42.708;23.310;2022-11-02T13:55:47;15.50;;;4.95;;
16450;SDS011;12243;42.708;23.310;2022-11-02T13:58:20;15.77;;;5.53;;
16450;SDS011;12243;42.708;23.310;2022-11-02T14:00:50;13.63;;;5.20;;
16450;SDS011;12243;42.708;23.310;2022-11-02T14:03:21;12.15;;;5.38;;
16450;SDS011;12243;42.708;23.310;2022-11-02T14:05:54;14.45;;;5.78;;
16450;SDS011;12243;42.708;23.310;2022-11-02T14:08:26;15.63;;;5.32;;
16450;SDS011;12243;42.708;23.310;2022-11-02T14:11:01;12.45;;;5.95;;
16450;SDS011;12243;42.708;23.310;2022-11-02T14:16:41;13.80;;;5.60;;
16450;SDS011;12243;42.708;23.310;2022-11-02T14:22:11;14.77;;;5.57;;
16450;SDS011;12243;42.708;23.310;2022-11-02T14:24:54;10.82;;;5.20;;
16450;SDS011;12243;42.708;23.310;2022-11-02T14:27:36;10.77;;;5.35;;
16450;SDS011;12243;42.708;23.310;2022-11-02T14:30:03;13.25;;;5.68;;
16450;SDS011;12243;42.708;23.310;2022-11-02T14:35:29;14.75;;;5.30;;
16450;SDS011;12243;42.708;23.310;2022-11-02T14:38:09;15.52;;;5.90;;
16450;SDS011;12243;42.708;23.310;2022-11-02T14:40:47;13.50;;;6.28;;
16450;SDS011;12243;42.708;23.310;2022-11-02T14:43:26;15.77;;;6.30;;
16450;SDS011;12243;42.708;23.310;2022-11-02T14:46:11;15.85;;;6.20;;
16450;SDS011;12243;42.708;23.310;2022-11-02T14:48:48;10.80;;;5.82;;